Time;durP1;ratioP1;P1;durP2;ratioP2;P2;SDS_P1;SDS_P2;PMS_P1;PMS_P2;Temp;Humidity;BMP_temperature;BMP_pressure;BME280_temperature;BME280_humidity;BME280_pressure;Samples;Min_cycle;Max_cycle;Signal;HPM_P1;HPM_P2
2022/05/23 00:01:23;;;;;;;1.40;1.30;;;15.90;13.70;;;;;;4991263;28;34198;-77
2022/05/23 00:03:50;;;;;;;1.17;1.02;;;15.90;13.80;;;;;;4991246;28;33742;-76
2022/05/23 00:06:19;;;;;;;3.03;0.95;;;15.90;13.80;;;;;;4990338;28;33876;-77
2022/05/23 00:08:45;;;;;;;1.25;1.05;;;15.80;14.10;;;;;;4990957;28;36481;-76
2022/05/23 00:11:11;;;;;;;0.98;0.98;;;15.80;13.90;;;;;;4991369;28;34292;-76
2022/05/23 00:13:38;;;;;;;1.85;1.10;;;15.70;14.00;;;;;;4985246;28;34476;-77
2022/05/23 00:16:04;;;;;;;2.63;1.10;;;15.70;14.10;;;;;;4987049;28;34263;-76
2022/05/23 00:18:30;;;;;;;2.88;1.23;;;15.60;14.10;;;;;;4988727;28;35573;-77
2022/05/23 00:20:56;;;;;;;1.35;1.00;;;15.60;14.20;;;;;;4971579;28;34193;-77
2022/05/23 00:23:22;;;;;;;1.73;1.10;;;15.60;14.40;;;;;;4985859;28;34238;-76
2022/05/23 00:25:49;;;;;;;2.05;1.15;;;15.50;14.60;;;;;;4990785;28;34144;-77
2022/05/23 00:28:15;;;;;;;1.67;1.10;;;15.50;14.70;;;;;;4957852;28;36571;-76
2022/05/23 00:30:41;;;;;;;1.15;1.00;;;15.50;14.80;;;;;;4985399;28;34032;-76
2022/05/23 00:35:54;;;;;;;1.55;1.10;;;15.40;15.10;;;;;;4998792;28;34268;-76
2022/05/23 00:38:21;;;;;;;1.38;1.13;;;15.40;15.60;;;;;;4988961;28;34326;-77
2022/05/23 00:43:59;;;;;;;1.23;1.13;;;15.40;17.60;;;;;;5003320;28;34293;-76
2022/05/23 00:46:25;;;;;;;1.60;1.30;;;15.40;16.30;;;;;;5004611;28;34320;-77
2022/05/23 00:48:52;;;;;;;1.50;1.40;;;15.40;15.40;;;;;;4973229;28;36307;-75
2022/05/23 00:51:18;;;;;;;2.92;1.33;;;15.50;15.50;;;;;;4991340;28;34167;-77
2022/05/23 00:53:51;;;;;;;1.15;1.08;;;15.50;15.60;;;;;;4991617;28;34225;-76
2022/05/23 00:56:19;;;;;;;0.95;0.95;;;15.50;16.20;;;;;;4997291;28;34102;-76
2022/05/23 00:58:51;;;;;;;4.30;1.30;;;15.50;15.80;;;;;;5007060;28;36203;-77
2022/05/23 01:01:23;;;;;;;1.33;1.20;;;15.50;16.30;;;;;;5002385;28;34559;-76
2022/05/23 01:03:49;;;;;;;1.92;1.27;;;15.50;16.30;;;;;;5010686;28;34112;-76
2022/05/23 01:06:15;;;;;;;2.90;1.33;;;15.50;15.80;;;;;;4993095;28;34140;-77
2022/05/23 01:08:42;;;;;;;1.25;1.15;;;15.50;15.80;;;;;;5007514;28;37178;-77
2022/05/23 01:11:09;;;;;;;1.20;1.10;;;15.50;15.80;;;;;;5007562;28;34090;-76
2022/05/23 01:13:35;;;;;;;2.25;1.63;;;15.50;15.90;;;;;;4987860;28;34163;-77
2022/05/23 01:16:01;;;;;;;1.80;1.55;;;15.50;15.90;;;;;;5005288;28;34229;-77
2022/05/23 01:18:27;;;;;;;3.17;1.25;;;15.50;15.90;;;;;;5001292;28;35939;-76
2022/05/23 01:20:59;;;;;;;1.77;1.30;;;15.50;16.00;;;;;;5006356;28;34185;-77
2022/05/23 01:23:50;;;;;;;2.22;1.20;;;15.50;16.70;;;;;;5016110;28;34186;-76
2022/05/23 01:26:16;;;;;;;3.72;1.55;;;15.50;18.30;;;;;;5011848;28;34134;-76
2022/05/23 01:28:43;;;;;;;1.45;1.25;;;15.50;16.30;;;;;;5009357;28;34215;-76
2022/05/23 01:31:12;;;;;;;1.75;1.27;;;15.50;16.30;;;;;;5009750;28;34249;-77
2022/05/23 01:33:38;;;;;;;1.20;1.10;;;15.60;16.30;;;;;;5009754;28;34268;-76
2022/05/23 01:36:09;;;;;;;2.63;1.20;;;15.50;16.30;;;;;;5011723;28;34363;-76
2022/05/23 01:38:35;;;;;;;1.30;1.20;;;15.60;16.40;;;;;;4997969;28;36003;-77
2022/05/23 01:41:01;;;;;;;2.40;1.33;;;15.60;16.40;;;;;;4995214;28;34340;-78
2022/05/23 01:43:27;;;;;;;1.92;1.48;;;15.60;16.40;;;;;;5015135;28;34121;-77
2022/05/23 01:45:53;;;;;;;3.47;1.40;;;15.60;16.50;;;;;;4994283;28;34328;-77
2022/05/23 01:48:19;;;;;;;3.50;1.52;;;15.60;17.00;;;;;;4993948;28;35856;-77
2022/05/23 01:50:45;;;;;;;7.00;2.10;;;15.60;16.60;;;;;;4992935;28;34076;-77
2022/05/23 01:53:11;;;;;;;1.77;1.60;;;15.70;16.70;;;;;;5001371;28;34138;-77
2022/05/23 01:55:37;;;;;;;1.67;1.48;;;15.70;16.70;;;;;;4994327;28;34134;-77
2022/05/23 01:58:04;;;;;;;2.67;1.17;;;15.70;16.70;;;;;;4977689;28;36059;-77
2022/05/23 02:03:11;;;;;;;2.20;1.27;;;15.70;16.80;;;;;;5010831;28;34273;-77
2022/05/23 02:05:37;;;;;;;1.15;1.13;;;15.70;16.80;;;;;;4976779;28;34123;-77
2022/05/23 02:08:03;;;;;;;1.10;1.10;;;15.70;16.80;;;;;;4992167;28;35968;-77
2022/05/23 02:10:30;;;;;;;2.85;1.30;;;15.70;16.80;;;;;;4993045;28;34329;-76
2022/05/23 02:12:59;;;;;;;4.07;1.27;;;15.70;16.90;;;;;;4995887;28;34336;-76
2022/05/23 02:15:28;;;;;;;3.05;1.33;;;15.70;16.90;;;;;;4999974;28;34282;-76
2022/05/23 02:17:56;;;;;;;5.68;1.50;;;15.70;16.90;;;;;;4996203;28;36397;-76
2022/05/23 02:20:22;;;;;;;1.73;1.40;;;15.70;16.90;;;;;;5010828;28;34063;-76
2022/05/23 02:22:48;;;;;;;2.92;1.50;;;15.80;17.10;;;;;;4994963;28;34010;-77
2022/05/23 02:25:14;;;;;;;4.57;1.40;;;15.70;17.20;;;;;;5019082;28;34234;-77
2022/05/23 02:27:40;;;;;;;1.50;1.40;;;15.70;17.40;;;;;;5004505;28;35712;-77
2022/05/23 02:30:07;;;;;;;1.35;1.25;;;15.70;17.70;;;;;;4998637;28;34158;-77
2022/05/23 02:32:33;;;;;;;1.70;1.23;;;15.70;17.80;;;;;;5001006;28;33832;-77
2022/05/23 02:34:59;;;;;;;3.92;1.67;;;15.70;17.90;;;;;;4986041;28;34555;-77
2022/05/23 02:37:25;;;;;;;1.52;1.40;;;15.80;17.80;;;;;;4975200;28;35883;-77
2022/05/23 02:39:51;;;;;;;1.40;1.30;;;15.80;17.80;;;;;;4992244;28;34159;-77
2022/05/23 02:42:17;;;;;;;1.55;1.42;;;15.80;17.80;;;;;;5008646;28;34076;-77
2022/05/23 02:44:45;;;;;;;1.23;1.13;;;15.90;17.90;;;;;;4991101;28;34205;-77
2022/05/23 02:47:10;;;;;;;1.40;1.30;;;15.80;17.90;;;;;;5009159;28;35602;-77
2022/05/23 02:49:36;;;;;;;1.83;1.27;;;15.90;17.80;;;;;;5011234;28;34348;-77
2022/05/23 02:52:03;;;;;;;1.50;1.40;;;15.90;17.90;;;;;;5011827;28;34201;-77
2022/05/23 02:54:29;;;;;;;4.15;1.63;;;15.90;17.90;;;;;;5011809;28;34124;-77
2022/05/23 02:56:55;;;;;;;2.17;1.40;;;15.90;17.90;;;;;;5004089;28;35559;-77
2022/05/23 02:59:21;;;;;;;1.73;1.40;;;15.90;18.00;;;;;;5022249;28;34035;-77
2022/05/23 03:04:28;;;;;;;1.67;1.55;;;15.90;18.00;;;;;;5029088;28;34059;-77
2022/05/23 03:06:53;;;;;;;1.75;1.65;;;15.90;18.10;;;;;;5019185;28;34322;-77
2022/05/23 03:09:19;;;;;;;1.85;1.73;;;15.90;18.10;;;;;;4973710;28;34261;-77
2022/05/23 03:11:48;;;;;;;2.08;1.50;;;15.90;18.20;;;;;;4983482;28;34081;-77
2022/05/23 03:14:14;;;;;;;2.10;1.42;;;15.90;18.20;;;;;;5010143;28;34514;-77
2022/05/23 03:16:40;;;;;;;4.13;1.70;;;15.90;18.30;;;;;;5011503;28;35768;-77
2022/05/23 03:19:05;;;;;;;2.40;1.75;;;15.90;18.30;;;;;;4992916;28;34185;-77
2022/05/23 03:27:01;;;;;;;2.85;1.63;;;15.90;18.30;;;;;;4995962;28;34768;-78
2022/05/23 03:29:28;;;;;;;1.98;1.58;;;15.90;18.40;;;;;;5002485;28;34386;-77
2022/05/23 03:31:54;;;;;;;2.13;1.58;;;15.90;18.50;;;;;;4999633;28;34043;-77
2022/05/23 03:34:20;;;;;;;1.80;1.40;;;15.90;18.60;;;;;;4995585;28;34372;-77
2022/05/23 03:36:46;;;;;;;1.67;1.58;;;15.90;18.60;;;;;;4977541;28;35733;-78
2022/05/23 03:39:12;;;;;;;1.88;1.40;;;15.80;18.60;;;;;;5027532;28;34400;-78
2022/05/23 03:41:38;;;;;;;1.67;1.48;;;15.80;18.70;;;;;;4968536;28;34105;-77
2022/05/23 03:44:07;;;;;;;1.77;1.67;;;15.80;18.80;;;;;;5013450;28;34190;-77
2022/05/23 03:46:35;;;;;;;1.58;1.40;;;15.80;19.00;;;;;;4997536;28;36472;-78
2022/05/23 03:49:02;;;;;;;1.92;1.42;;;15.80;19.10;;;;;;4991070;28;34388;-77
2022/05/23 03:51:28;;;;;;;1.50;1.40;;;15.70;19.20;;;;;;4987273;28;34316;-78
2022/05/23 03:53:55;;;;;;;2.33;1.50;;;15.70;19.30;;;;;;4987765;28;34363;-78
2022/05/23 03:56:21;;;;;;;4.10;1.63;;;15.70;19.40;;;;;;4987358;28;35670;-76
2022/05/23 03:58:47;;;;;;;3.22;1.52;;;15.70;19.40;;;;;;4988813;28;34091;-77
2022/05/23 04:01:17;;;;;;;1.50;1.30;;;15.70;19.50;;;;;;4991071;28;34093;-77
2022/05/23 04:03:42;;;;;;;3.40;1.60;;;15.60;19.60;;;;;;5007522;28;34104;-78
2022/05/23 04:06:09;;;;;;;2.95;1.48;;;15.60;19.60;;;;;;4973919;28;35763;-78
2022/05/23 04:08:35;;;;;;;3.67;1.75;;;15.60;19.70;;;;;;4986716;28;34260;-78
2022/05/23 04:11:02;;;;;;;2.05;1.63;;;15.60;19.80;;;;;;5007533;28;34379;-78
2022/05/23 04:13:28;;;;;;;2.95;1.52;;;15.60;19.80;;;;;;4972188;28;34160;-77
2022/05/23 04:15:54;;;;;;;1.70;1.60;;;15.60;19.80;;;;;;4954721;28;36866;-76
2022/05/23 04:18:20;;;;;;;2.05;1.83;;;15.50;19.90;;;;;;4990539;28;34079;-78
2022/05/23 04:20:46;;;;;;;3.67;1.80;;;15.60;19.90;;;;;;5006909;28;34300;-77
2022/05/23 04:23:13;;;;;;;1.95;1.77;;;15.60;19.90;;;;;;5008453;28;34225;-77
2022/05/23 04:25:40;;;;;;;3.58;1.70;;;15.60;19.90;;;;;;5006332;28;35750;-76
2022/05/23 04:28:07;;;;;;;3.10;1.77;;;15.70;20.00;;;;;;5007110;28;34176;-78
2022/05/23 04:30:33;;;;;;;2.22;1.75;;;15.70;19.90;;;;;;4973534;28;34344;-78
2022/05/23 04:35:40;;;;;;;1.98;1.83;;;15.80;19.60;;;;;;4987098;28;34322;-77
2022/05/23 04:38:06;;;;;;;3.80;1.80;;;15.80;19.50;;;;;;4987087;28;34304;-77
2022/05/23 04:40:32;;;;;;;4.50;1.92;;;15.90;19.40;;;;;;4974974;28;34465;-77
2022/05/23 04:42:58;;;;;;;1.67;1.58;;;15.90;19.30;;;;;;4958018;28;34915;-77
2022/05/23 04:45:24;;;;;;;3.80;1.88;;;15.90;19.20;;;;;;4993990;28;36042;-77
2022/05/23 04:50:31;;;;;;;3.25;1.55;;;16.00;19.30;;;;;;5025083;28;34413;-77
2022/05/23 04:52:57;;;;;;;1.83;1.63;;;16.00;19.20;;;;;;5009733;28;34470;-76
2022/05/23 04:55:24;;;;;;;2.92;1.67;;;16.10;19.40;;;;;;4991071;28;35967;-76
2022/05/23 04:57:52;;;;;;;1.88;1.65;;;16.10;19.50;;;;;;4986389;28;34262;-77
2022/05/23 05:00:21;;;;;;;6.20;2.00;;;16.10;19.50;;;;;;5009046;28;34082;-77
2022/05/23 05:02:49;;;;;;;2.75;2.00;;;16.20;19.90;;;;;;4977624;28;34196;-78
2022/05/23 05:05:16;;;;;;;2.50;1.92;;;16.20;19.80;;;;;;5011719;28;35041;-77
2022/05/23 05:07:42;;;;;;;3.50;1.83;;;16.20;19.80;;;;;;5012777;28;34064;-78
2022/05/23 05:10:08;;;;;;;2.92;1.60;;;16.30;19.70;;;;;;5012450;28;34067;-78
2022/05/23 05:12:34;;;;;;;2.10;1.90;;;16.30;19.80;;;;;;4988546;28;34324;-78
2022/05/23 05:15:01;;;;;;;3.60;1.92;;;16.40;19.80;;;;;;4994683;28;36325;-78
2022/05/23 05:17:27;;;;;;;3.33;2.05;;;16.40;20.00;;;;;;5013110;28;34023;-79
2022/05/23 05:19:54;;;;;;;1.92;1.65;;;16.50;19.90;;;;;;5025340;28;34098;-79
2022/05/23 05:22:20;;;;;;;2.17;1.98;;;16.50;19.90;;;;;;4985329;28;34164;-79
2022/05/23 05:24:46;;;;;;;3.03;2.15;;;16.50;20.00;;;;;;5019125;28;35272;-80
2022/05/23 05:27:13;;;;;;;2.40;1.90;;;16.60;19.90;;;;;;5011166;28;34411;-80
2022/05/23 05:29:39;;;;;;;2.15;1.90;;;16.60;20.00;;;;;;4993443;28;34059;-79
2022/05/23 05:32:14;;;;;;;2.58;1.80;;;16.60;20.20;;;;;;4983815;28;34200;-79
2022/05/23 05:34:59;;;;;;;3.05;1.90;;;16.70;20.90;;;;;;5011223;28;36340;-80
2022/05/23 05:37:32;;;;;;;2.17;1.90;;;16.90;23.60;;;;;;5011153;28;34137;-80
2022/05/23 05:40:01;;;;;;;2.63;2.15;;;16.90;21.10;;;;;;4994240;28;34349;-79
2022/05/23 05:42:32;;;;;;;2.25;2.00;;;17.00;20.80;;;;;;4997169;28;34182;-79
2022/05/23 05:45:05;;;;;;;3.15;2.03;;;17.10;20.70;;;;;;4993612;28;36109;-79
2022/05/23 05:47:34;;;;;;;2.38;1.98;;;17.20;20.50;;;;;;5029479;28;34088;-80
2022/05/23 05:50:07;;;;;;;3.58;2.10;;;17.20;20.40;;;;;;5012914;28;34248;-78
2022/05/23 05:52:34;;;;;;;4.43;2.10;;;17.30;20.60;;;;;;4993840;28;34190;-79
2022/05/23 05:55:03;;;;;;;3.28;1.95;;;17.40;20.30;;;;;;5012951;28;35508;-79
2022/05/23 05:57:29;;;;;;;2.28;1.80;;;17.50;20.30;;;;;;5006690;28;34379;-79
2022/05/23 05:59:55;;;;;;;2.55;2.22;;;17.50;20.00;;;;;;4975239;28;34240;-79
2022/05/23 06:02:21;;;;;;;2.80;2.10;;;17.60;20.00;;;;;;4999982;28;34044;-79
2022/05/23 06:04:47;;;;;;;2.13;1.98;;;17.60;20.00;;;;;;4999743;28;35991;-78
2022/05/23 06:12:47;;;;;;;4.13;2.30;;;17.80;20.10;;;;;;5011933;28;34188;-79
2022/05/23 06:15:13;;;;;;;2.17;1.98;;;17.90;20.00;;;;;;4975080;28;35834;-79
2022/05/23 06:17:42;;;;;;;3.83;2.17;;;18.00;20.00;;;;;;4959264;28;34146;-78
2022/05/23 06:20:09;;;;;;;3.00;2.00;;;18.10;20.00;;;;;;5008965;28;34096;-78
2022/05/23 06:22:35;;;;;;;2.85;2.17;;;18.20;19.70;;;;;;4995119;28;34192;-78
2022/05/23 06:25:02;;;;;;;2.47;2.25;;;18.20;19.70;;;;;;5009444;28;35187;-78
2022/05/23 06:27:28;;;;;;;4.00;2.53;;;18.30;19.60;;;;;;5006279;28;34445;-79
2022/05/23 06:29:55;;;;;;;2.72;1.85;;;18.40;19.60;;;;;;5010653;28;34153;-78
2022/05/23 06:32:22;;;;;;;3.85;2.22;;;18.50;19.30;;;;;;5009082;28;34431;-78
2022/05/23 06:34:48;;;;;;;2.17;1.92;;;18.60;19.10;;;;;;5008925;28;34241;-78
2022/05/23 06:37:14;;;;;;;2.15;1.98;;;18.90;19.10;;;;;;5012261;28;34320;-79
2022/05/23 06:39:40;;;;;;;3.92;2.55;;;19.10;18.70;;;;;;5008326;28;34348;-79
2022/05/23 06:42:06;;;;;;;2.95;2.00;;;19.30;18.30;;;;;;5011078;28;34341;-78
2022/05/23 06:44:33;;;;;;;2.70;2.08;;;19.50;17.80;;;;;;5010209;28;35776;-79
2022/05/23 06:46:59;;;;;;;2.95;2.40;;;19.80;17.20;;;;;;4984081;28;34206;-79
2022/05/23 06:49:26;;;;;;;4.75;2.13;;;20.30;16.70;;;;;;4989927;28;34200;-78
2022/05/23 06:51:52;;;;;;;2.55;1.90;;;20.70;15.90;;;;;;4988779;28;34072;-79
2022/05/23 06:54:19;;;;;;;2.78;2.00;;;21.10;15.10;;;;;;4987805;28;35986;-77
2022/05/23 06:56:46;;;;;;;3.85;2.00;;;21.50;13.70;;;;;;4996681;28;34034;-78
2022/05/23 06:59:13;;;;;;;3.75;1.95;;;22.00;13.10;;;;;;5009965;28;34145;-77
2022/05/23 07:01:39;;;;;;;4.53;2.08;;;22.50;12.20;;;;;;5006669;28;34334;-77
2022/05/23 07:04:05;;;;;;;2.45;2.25;;;22.90;11.20;;;;;;4987050;28;35846;-77
2022/05/23 07:14:36;;;;;;;3.15;1.70;;;24.60;8.50;;;;;;4993341;28;34125;-78
2022/05/23 07:17:02;;;;;;;2.45;1.90;;;24.90;8.00;;;;;;4965244;28;33754;-78
2022/05/23 07:19:28;;;;;;;3.25;2.10;;;25.00;7.80;;;;;;4989129;28;34149;-78
2022/05/23 07:21:59;;;;;;;1.90;1.75;;;24.70;7.70;;;;;;4979173;28;34043;-77
2022/05/23 07:24:26;;;;;;;2.65;1.83;;;24.60;8.10;;;;;;4969798;28;35514;-78
2022/05/23 07:26:54;;;;;;;4.85;2.00;;;24.60;8.10;;;;;;4978385;28;34207;-78
2022/05/23 07:29:22;;;;;;;2.20;2.00;;;24.70;8.00;;;;;;4993832;28;34212;-78
2022/05/23 07:31:49;;;;;;;4.18;1.88;;;24.80;7.80;;;;;;4970894;28;34459;-77
2022/05/23 07:34:15;;;;;;;3.75;2.00;;;25.00;7.40;;;;;;4972486;28;36987;-77
2022/05/23 07:36:41;;;;;;;5.07;2.28;;;25.10;7.30;;;;;;4974149;28;34094;-78
2022/05/23 07:39:08;;;;;;;4.75;2.03;;;25.30;7.00;;;;;;4991620;28;34185;-78
2022/05/23 07:41:35;;;;;;;2.00;1.80;;;25.40;6.50;;;;;;4992609;28;34143;-77
2022/05/23 07:44:01;;;;;;;2.08;1.80;;;25.40;6.50;;;;;;4989993;28;35831;-77
2022/05/23 07:46:27;;;;;;;1.92;1.80;;;25.50;6.10;;;;;;4990897;28;34467;-80
2022/05/23 07:48:53;;;;;;;1.60;1.50;;;25.80;6.00;;;;;;5010101;28;34402;-78
2022/05/23 07:51:23;;;;;;;1.92;1.73;;;26.00;6.10;;;;;;5027655;28;34270;-78
2022/05/23 08:01:52;;;;;;;2.25;1.30;;;26.90;4.00;;;;;;5019525;28;34013;-79
2022/05/23 08:04:19;;;;;;;4.43;1.42;;;26.80;3.70;;;;;;4994614;28;35807;-79
2022/05/23 08:06:46;;;;;;;1.98;1.45;;;26.90;3.70;;;;;;4991447;28;36245;-78
2022/05/23 08:09:12;;;;;;;1.85;1.38;;;27.00;3.80;;;;;;4982973;28;34212;-78
2022/05/23 08:11:40;;;;;;;2.35;1.40;;;27.20;3.80;;;;;;5028082;28;34141;-77
2022/05/23 08:14:07;;;;;;;1.85;1.60;;;27.40;2.90;;;;;;4993764;28;34346;-78
2022/05/23 08:16:35;;;;;;;1.25;1.13;;;27.70;3.10;;;;;;4993177;28;34528;-78
2022/05/23 08:19:02;;;;;;;2.22;1.10;;;27.90;2.90;;;;;;5021253;28;34348;-77
2022/05/23 08:21:28;;;;;;;2.00;1.10;;;28.10;3.20;;;;;;5007395;28;34298;-77
2022/05/23 08:23:54;;;;;;;2.75;1.30;;;27.90;2.60;;;;;;5009253;28;35976;-78
2022/05/23 08:26:21;;;;;;;2.45;1.23;;;27.80;2.30;;;;;;4992053;28;34282;-77
2022/05/23 08:28:49;;;;;;;4.30;1.50;;;27.50;1.60;;;;;;5001731;28;33776;-77
2022/05/23 08:31:15;;;;;;;1.92;1.30;;;27.40;2.10;;;;;;4991757;28;34016;-77
2022/05/23 08:33:41;;;;;;;1.60;1.08;;;27.40;3.20;;;;;;4975755;28;35480;-78
2022/05/23 08:36:07;;;;;;;2.38;1.30;;;27.30;3.50;;;;;;5010106;28;34179;-77
2022/05/23 08:38:33;;;;;;;2.97;1.30;;;27.30;3.30;;;;;;4994360;28;34269;-78
2022/05/23 08:41:19;;;;;;;2.47;1.45;;;27.20;3.40;;;;;;5014683;28;34390;-79
2022/05/23 08:44:08;;;;;;;1.90;1.40;;;26.90;1.70;;;;;;5014450;28;35634;-78
2022/05/23 08:46:51;;;;;;;1.65;1.52;;;26.50;1.90;;;;;;4997554;28;34088;-77
2022/05/23 08:49:46;;;;;;;2.00;1.58;;;26.30;3.60;;;;;;5005857;28;34170;-78
2022/05/23 08:52:42;;;;;;;2.92;1.95;;;26.20;2.60;;;;;;5008445;28;34123;-77
2022/05/23 08:55:19;;;;;;;1.95;1.30;;;26.20;3.30;;;;;;5011054;28;35752;-76
2022/05/23 08:58:08;;;;;;;1.75;1.65;;;26.40;4.40;;;;;;4986848;28;34059;-75
2022/05/23 09:00:41;;;;;;;1.70;1.55;;;26.70;1.90;;;;;;4993989;28;34205;-76
2022/05/23 09:03:30;;;;;;;3.88;1.73;;;26.90;2.80;;;;;;4995772;28;34540;-76
2022/05/23 09:06:02;;;;;;;2.72;2.00;;;26.90;3.20;;;;;;5009663;28;34331;-74
2022/05/23 09:08:37;;;;;;;3.42;1.95;;;26.60;2.90;;;;;;5006644;28;34666;-75
2022/05/23 09:11:12;;;;;;;3.15;1.90;;;26.30;3.50;;;;;;5010053;28;34388;-74
2022/05/23 09:13:42;;;;;;;4.90;1.80;;;26.10;3.50;;;;;;4994468;28;34155;-74
2022/05/23 09:16:12;;;;;;;4.28;1.88;;;25.80;4.00;;;;;;4996259;28;35649;-74
2022/05/23 09:18:46;;;;;;;2.15;1.63;;;25.70;4.40;;;;;;4996838;28;34106;-73
2022/05/23 09:21:12;;;;;;;3.20;1.85;;;25.60;5.00;;;;;;4992519;28;34223;-74
2022/05/23 09:23:51;;;;;;;3.25;2.30;;;25.60;5.10;;;;;;5001149;28;34574;-75
2022/05/23 09:26:27;;;;;;;1.92;1.83;;;25.60;5.90;;;;;;4995915;28;35789;-75
2022/05/23 09:28:56;;;;;;;2.25;1.98;;;25.70;5.50;;;;;;5027859;28;34276;-74
2022/05/23 09:31:49;;;;;;;2.00;1.60;;;25.80;4.70;;;;;;5012341;28;34411;-74
2022/05/23 09:34:33;;;;;;;5.30;2.10;;;26.00;4.70;;;;;;5012934;28;34333;-75
2022/05/23 09:37:01;;;;;;;2.28;2.03;;;26.10;4.10;;;;;;4993926;28;35829;-74
2022/05/23 09:39:29;;;;;;;3.95;2.08;;;26.30;4.30;;;;;;5000655;28;34236;-74
2022/05/23 09:50:08;;;;;;;2.88;1.88;;;26.20;4.70;;;;;;5026171;28;34105;-75
2022/05/23 09:52:42;;;;;;;3.17;1.80;;;26.00;4.90;;;;;;5012742;28;34301;-74
2022/05/23 09:55:12;;;;;;;3.35;1.95;;;25.90;4.70;;;;;;4998141;28;34166;-75
2022/05/23 09:57:43;;;;;;;4.13;1.80;;;25.80;4.90;;;;;;4990765;28;36087;-73
2022/05/23 10:00:32;;;;;;;4.68;2.00;;;25.60;5.20;;;;;;4989996;28;33608;-72
2022/05/23 10:03:10;;;;;;;2.35;1.90;;;25.30;5.30;;;;;;4972191;28;34567;-73
2022/05/23 10:05:41;;;;;;;2.15;1.90;;;25.10;6.40;;;;;;4970550;28;34208;-77
2022/05/23 10:08:14;;;;;;;3.67;1.90;;;24.70;6.70;;;;;;5012729;28;34922;-73
2022/05/23 10:11:01;;;;;;;2.22;1.95;;;24.30;7.50;;;;;;4994534;28;34170;-75
2022/05/23 10:13:37;;;;;;;2.72;1.98;;;24.10;8.40;;;;;;5027423;28;34085;-76
2022/05/23 10:16:28;;;;;;;3.45;1.80;;;23.80;8.30;;;;;;5010378;28;34484;-76
2022/05/23 10:19:01;;;;;;;4.38;1.83;;;23.70;11.50;;;;;;4984890;28;34489;-75
2022/05/23 10:21:38;;;;;;;6.32;2.00;;;23.50;9.00;;;;;;4994113;28;34249;-75
2022/05/23 10:24:12;;;;;;;2.88;1.92;;;23.40;10.20;;;;;;4985471;28;34249;-75
2022/05/23 10:26:55;;;;;;;6.68;2.13;;;23.30;10.00;;;;;;4960786;28;34296;-75
2022/05/23 10:29:28;;;;;;;5.55;1.88;;;23.20;13.00;;;;;;4984351;28;36172;-76
2022/05/23 10:32:08;;;;;;;5.43;2.13;;;23.20;11.80;;;;;;4976594;28;34233;-75
2022/05/23 10:34:41;;;;;;;4.03;2.10;;;23.10;11.50;;;;;;4974400;28;34241;-75
2022/05/23 10:37:21;;;;;;;3.72;2.30;;;23.10;12.40;;;;;;4990146;28;34404;-74
2022/05/23 10:42:51;;;;;;;2.97;2.28;;;23.20;11.30;;;;;;4997808;28;34270;-75
2022/05/23 10:45:36;;;;;;;3.72;1.98;;;23.30;13.40;;;;;;5006082;28;35046;-76
2022/05/23 10:48:29;;;;;;;3.88;2.60;;;23.40;14.50;;;;;;4995864;28;34308;-75
2022/05/23 10:51:21;;;;;;;4.68;2.22;;;23.50;13.60;;;;;;5004264;28;34262;-77
2022/05/23 10:54:08;;;;;;;3.70;2.45;;;23.50;12.20;;;;;;4971297;28;34093;-78
2022/05/23 10:56:57;;;;;;;2.53;2.10;;;23.60;11.70;;;;;;4955413;28;34396;-77
2022/05/23 10:59:43;;;;;;;2.63;2.20;;;23.60;12.40;;;;;;4991824;28;34034;-77
2022/05/23 11:02:24;;;;;;;3.55;2.55;;;23.70;12.20;;;;;;4985332;28;35600;-78
2022/05/23 11:05:07;;;;;;;6.25;2.45;;;23.70;11.50;;;;;;4975945;28;33662;-78
2022/05/23 11:07:53;;;;;;;2.97;2.20;;;23.80;11.60;;;;;;4992367;28;34293;-78
2022/05/23 11:10:27;;;;;;;3.72;2.40;;;23.90;11.20;;;;;;4978869;28;35978;-79
2022/05/23 11:13:21;;;;;;;2.35;2.00;;;24.10;12.00;;;;;;5008028;28;34297;-79
2022/05/23 11:16:10;;;;;;;3.65;2.40;;;24.20;13.10;;;;;;4981812;28;33735;-80
2022/05/23 11:19:06;;;;;;;2.70;2.50;;;24.20;12.30;;;;;;4982786;28;34251;-78
2022/05/23 11:21:43;;;;;;;3.92;2.55;;;24.20;12.40;;;;;;4986999;28;34163;-79
2022/05/23 11:24:24;;;;;;;4.65;2.55;;;24.10;11.30;;;;;;4969394;28;35933;-79
2022/05/23 11:33:41;;;;;;;8.20;2.50;;;24.10;12.60;;;;;;4996979;28;33735;-80
2022/05/23 11:35:21;;;;;;;2.42;2.10;;;23.80;11.90;;;;;;4962864;28;34764;-79
2022/05/23 11:37:49;;;;;;;4.07;2.40;;;23.70;12.40;;;;;;4981046;28;34281;-79
2022/05/23 11:40:34;;;;;;;3.90;2.35;;;23.40;12.60;;;;;;4995383;28;34301;-79
2022/05/23 11:43:07;;;;;;;4.57;2.40;;;23.30;15.10;;;;;;5004714;28;34372;-79
2022/05/23 11:48:44;;;;;;;3.42;2.15;;;23.30;13.70;;;;;;4998600;28;34092;-81
2022/05/23 11:51:25;;;;;;;2.70;2.33;;;23.40;16.70;;;;;;5004922;28;34262;-81
2022/05/23 11:54:03;;;;;;;6.47;2.25;;;23.50;15.30;;;;;;4991103;28;34515;-79
2022/05/23 11:57:05;;;;;;;2.97;2.35;;;23.70;15.00;;;;;;4993269;28;34334;-80
2022/05/23 12:00:00;;;;;;;4.82;2.50;;;23.90;15.50;;;;;;4978387;28;34216;-80
2022/05/23 12:02:27;;;;;;;3.42;2.20;;;24.10;15.60;;;;;;5007427;28;34186;-81
2022/05/23 12:05:12;;;;;;;2.53;2.33;;;24.30;13.20;;;;;;5012261;28;34051;-78
2022/05/23 12:07:58;;;;;;;5.78;2.83;;;24.30;13.00;;;;;;5010216;28;36603;-80
2022/05/23 12:10:41;;;;;;;5.65;2.83;;;24.40;14.80;;;;;;4995441;28;34210;-79
2022/05/23 12:13:39;;;;;;;8.20;2.72;;;24.50;15.00;;;;;;4991973;28;34176;-79
2022/05/23 12:16:37;;;;;;;3.20;2.45;;;24.70;14.50;;;;;;4993130;28;33986;-80
2022/05/23 12:19:33;;;;;;;4.10;2.60;;;24.90;14.20;;;;;;4999685;28;36102;-79
2022/05/23 12:22:18;;;;;;;3.05;2.75;;;25.10;14.70;;;;;;5003409;28;34015;-79
2022/05/23 12:25:15;;;;;;;3.38;2.50;;;25.40;14.80;;;;;;5008028;28;34255;-76
2022/05/23 12:28:04;;;;;;;5.15;2.42;;;25.60;12.50;;;;;;5003224;28;34163;-78
2022/05/23 12:30:37;;;;;;;5.22;2.70;;;25.80;11.50;;;;;;4993952;28;36604;-77
2022/05/23 12:33:10;;;;;;;5.72;2.80;;;25.80;11.10;;;;;;4988320;28;34120;-77
2022/05/23 12:35:55;;;;;;;5.40;2.50;;;25.70;11.10;;;;;;4989345;28;34079;-77
2022/05/23 12:38:52;;;;;;;3.90;2.45;;;25.60;10.90;;;;;;4989869;28;34190;-77
2022/05/23 12:41:39;;;;;;;4.05;2.50;;;25.30;11.80;;;;;;5010202;28;35199;-77
2022/05/23 12:44:30;;;;;;;4.30;2.22;;;25.20;12.50;;;;;;5001978;28;34191;-77
2022/05/23 12:47:27;;;;;;;3.42;2.70;;;25.00;12.80;;;;;;4991535;28;34386;-77
2022/05/23 12:50:18;;;;;;;5.00;2.15;;;24.90;13.70;;;;;;5006886;28;34330;-78
2022/05/23 12:53:15;;;;;;;3.17;2.15;;;25.00;12.60;;;;;;5008595;28;34150;-77
2022/05/23 12:56:13;;;;;;;4.53;2.45;;;25.10;13.30;;;;;;4990277;28;34200;-77
2022/05/23 12:59:10;;;;;;;2.78;2.33;;;25.40;13.30;;;;;;5007420;28;33865;-77
2022/05/23 13:01:39;;;;;;;2.95;2.17;;;25.50;12.40;;;;;;5007156;28;33992;-76
2022/05/23 13:04:14;;;;;;;3.60;2.40;;;25.60;11.50;;;;;;4986723;28;36014;-78
2022/05/23 13:06:54;;;;;;;4.78;2.50;;;25.60;11.00;;;;;;4990418;28;34301;-76
2022/05/23 13:09:44;;;;;;;4.68;2.17;;;25.60;11.70;;;;;;5003935;28;34069;-77
2022/05/23 13:12:19;;;;;;;3.92;2.30;;;25.60;12.40;;;;;;4996578;28;34142;-75
2022/05/23 13:14:59;;;;;;;4.38;2.15;;;25.50;10.80;;;;;;4988811;28;36768;-76
2022/05/23 13:17:37;;;;;;;3.35;1.90;;;25.60;10.70;;;;;;4984437;28;34139;-76
2022/05/23 13:22:56;;;;;;;4.18;2.08;;;25.40;11.10;;;;;;5016812;28;34152;-75
2022/05/23 13:25:41;;;;;;;4.90;2.80;;;25.30;11.20;;;;;;4977302;28;36614;-76
2022/05/23 13:28:10;;;;;;;4.28;2.22;;;25.10;11.80;;;;;;5013532;28;34103;-76
2022/05/23 13:30:41;;;;;;;4.25;1.98;;;24.80;11.20;;;;;;4991524;28;34436;-77
2022/05/23 13:33:14;;;;;;;5.30;2.05;;;24.60;11.40;;;;;;4994740;28;34400;-76
2022/05/23 13:35:41;;;;;;;5.00;2.25;;;24.40;11.40;;;;;;5011390;28;34143;-77
2022/05/23 13:38:18;;;;;;;4.47;2.15;;;24.30;11.70;;;;;;5009555;28;34447;-75
2022/05/23 13:40:49;;;;;;;5.03;2.17;;;24.00;11.50;;;;;;5010394;28;34267;-76
2022/05/23 13:43:20;;;;;;;5.25;2.25;;;23.80;12.60;;;;;;5011276;28;34270;-75
2022/05/23 13:45:54;;;;;;;6.22;2.35;;;23.70;12.90;;;;;;5010591;28;34463;-75
2022/05/23 13:48:25;;;;;;;5.28;2.00;;;23.50;13.40;;;;;;4982100;28;34236;-74
2022/05/23 13:50:57;;;;;;;4.63;2.25;;;23.20;13.60;;;;;;4988447;28;34285;-75
2022/05/23 13:53:33;;;;;;;6.65;2.03;;;23.10;13.90;;;;;;4990634;28;34827;-73
2022/05/23 13:56:02;;;;;;;8.57;2.60;;;22.90;16.40;;;;;;4975046;28;36038;-75
2022/05/23 13:58:32;;;;;;;4.90;2.65;;;22.80;14.50;;;;;;4970578;28;34265;-74
2022/05/23 14:01:05;;;;;;;4.90;3.03;;;22.80;15.30;;;;;;4991004;28;34228;-75
2022/05/23 14:03:36;;;;;;;5.20;2.88;;;22.80;16.70;;;;;;4990657;28;34483;-75
2022/05/23 14:06:06;;;;;;;3.97;2.78;;;22.90;16.30;;;;;;5008597;28;34298;-76
2022/05/23 14:08:36;;;;;;;7.72;2.80;;;23.00;16.30;;;;;;4974817;28;34144;-76
2022/05/23 14:11:07;;;;;;;5.57;3.10;;;23.10;16.10;;;;;;4990246;28;34392;-76
2022/05/23 14:13:33;;;;;;;5.25;2.95;;;23.10;15.90;;;;;;4997629;28;34357;-74
2022/05/23 14:16:01;;;;;;;4.35;3.00;;;23.10;16.10;;;;;;4990178;28;35533;-74
2022/05/23 14:18:32;;;;;;;4.68;3.03;;;23.00;16.10;;;;;;4958848;28;34476;-74